Time;durP1;ratioP1;P1;durP2;ratioP2;P2;SDS_P1;SDS_P2;PMS_P1;PMS_P2;Temp;Humidity;BMP_temperature;BMP_pressure;BME280_temperature;BME280_humidity;BME280_pressure;Samples;Min_cycle;Max_cycle;Signal;HPM_P1;HPM_P2
2022/11/29 00:01:14;;;;;;;20.17;2.22;;;22.40;37.60;;;;;;5019955;28;20081;-68
2022/11/29 00:03:41;;;;;;;9.32;2.60;;;22.40;37.70;;;;;;5020449;28;20104;-66
2022/11/29 00:06:14;;;;;;;14.43;2.92;;;22.30;37.80;;;;;;5016956;28;20093;-67
2022/11/29 00:08:40;;;;;;;16.10;2.70;;;22.30;38.00;;;;;;5020870;28;20078;-65
2022/11/29 00:11:13;;;;;;;9.27;2.80;;;22.20;38.00;;;;;;5025929;28;20113;-66
2022/11/29 00:13:40;;;;;;;9.50;2.45;;;22.10;38.10;;;;;;5020663;28;20475;-67
2022/11/29 00:16:13;;;;;;;21.02;2.90;;;22.00;38.30;;;;;;5018523;28;20528;-67
2022/11/29 00:18:39;;;;;;;16.55;3.20;;;21.90;38.70;;;;;;5022219;28;20165;-66
2022/11/29 00:21:07;;;;;;;16.90;3.65;;;21.80;38.80;;;;;;5018549;28;20582;-65
2022/11/29 00:23:34;;;;;;;16.35;3.22;;;21.70;39.00;;;;;;5018542;28;20185;-66
2022/11/29 00:26:05;;;;;;;12.40;3.00;;;21.60;39.00;;;;;;5020288;28;20099;-66
2022/11/29 00:28:32;;;;;;;23.73;3.25;;;21.50;39.40;;;;;;5017144;28;20082;-64
2022/11/29 00:30:59;;;;;;;32.08;18.63;;;21.40;39.50;;;;;;5020218;28;20078;-66
2022/11/29 00:33:25;;;;;;;23.60;4.20;;;21.40;39.70;;;;;;5018048;28;20074;-64
2022/11/29 00:35:52;;;;;;;18.73;3.58;;;21.30;39.90;;;;;;5023020;28;20070;-65
2022/11/29 00:38:18;;;;;;;23.52;5.82;;;21.20;40.30;;;;;;5022001;28;20069;-64
2022/11/29 00:40:50;;;;;;;18.52;3.78;;;21.10;40.60;;;;;;5015617;28;20580;-64
2022/11/29 00:43:17;;;;;;;15.10;4.15;;;21.00;40.60;;;;;;5023177;28;20169;-65
2022/11/29 00:45:43;;;;;;;25.33;4.50;;;20.90;40.80;;;;;;5019321;28;20077;-65
2022/11/29 00:48:09;;;;;;;15.95;4.05;;;20.80;41.00;;;;;;5017193;28;20161;-65
2022/11/29 00:50:36;;;;;;;18.17;4.10;;;20.80;41.30;;;;;;5021188;28;20076;-64
2022/11/29 00:53:02;;;;;;;22.85;4.22;;;20.70;41.40;;;;;;5015011;28;20136;-65
2022/11/29 00:55:28;;;;;;;21.42;4.18;;;20.60;41.70;;;;;;5021492;28;20086;-66
2022/11/29 00:57:55;;;;;;;13.00;3.72;;;20.50;41.70;;;;;;5021793;28;20171;-64
2022/11/29 01:00:21;;;;;;;12.52;3.25;;;20.40;41.60;;;;;;5019738;28;20070;-63
2022/11/29 01:02:47;;;;;;;18.73;4.20;;;20.40;41.60;;;;;;5019335;28;20096;-65
2022/11/29 01:05:14;;;;;;;18.10;4.22;;;20.30;41.60;;;;;;5016922;28;20431;-67
2022/11/29 01:07:40;;;;;;;21.77;5.00;;;20.20;41.70;;;;;;5017540;28;20114;-66
2022/11/29 01:10:07;;;;;;;26.23;6.05;;;20.20;41.80;;;;;;5020861;28;20435;-67
2022/11/29 01:12:38;;;;;;;19.73;5.28;;;20.10;42.00;;;;;;5018908;28;20569;-66
2022/11/29 01:15:06;;;;;;;25.13;5.50;;;20.10;42.20;;;;;;5019617;28;20078;-68
2022/11/29 01:17:36;;;;;;;19.30;5.35;;;20.00;42.70;;;;;;5019240;28;20074;-65
2022/11/29 01:20:05;;;;;;;13.70;3.83;;;20.00;42.30;;;;;;5015932;28;20168;-64
2022/11/29 01:22:32;;;;;;;21.42;4.45;;;19.90;42.70;;;;;;5016058;28;20085;-66
2022/11/29 01:24:59;;;;;;;23.05;4.05;;;19.80;43.20;;;;;;5015683;28;20074;-65
2022/11/29 01:27:25;;;;;;;12.50;3.55;;;19.70;43.50;;;;;;5017583;28;20532;-66
2022/11/29 01:29:51;;;;;;;22.70;3.60;;;19.70;43.80;;;;;;5019462;28;20443;-65
2022/11/29 01:32:18;;;;;;;17.08;3.05;;;19.60;44.10;;;;;;5018306;28;20131;-66
2022/11/29 01:34:44;;;;;;;12.07;3.58;;;19.50;44.30;;;;;;5020163;28;20077;-66
2022/11/29 01:37:11;;;;;;;25.15;4.63;;;19.50;44.50;;;;;;5017235;28;20066;-67
2022/11/29 01:39:37;;;;;;;26.27;4.32;;;19.40;44.70;;;;;;5016555;28;20124;-67
2022/11/29 01:42:04;;;;;;;14.88;3.80;;;19.40;45.10;;;;;;5020279;28;20598;-66
2022/11/29 01:44:30;;;;;;;19.67;3.65;;;19.30;45.30;;;;;;5015370;28;20438;-67
2022/11/29 01:46:57;;;;;;;20.60;3.55;;;19.20;45.50;;;;;;5021281;28;20557;-64
2022/11/29 01:49:30;;;;;;;28.63;4.53;;;19.20;45.80;;;;;;5002349;28;20554;-65
2022/11/29 01:52:10;;;;;;;19.25;3.38;;;19.10;46.20;;;;;;5023529;28;20092;-66
2022/11/29 01:54:44;;;;;;;14.15;3.50;;;19.20;45.70;;;;;;5021834;28;20441;-66
2022/11/29 01:57:12;;;;;;;11.88;3.30;;;19.10;45.90;;;;;;5016585;28;20094;-65
2022/11/29 01:59:43;;;;;;;16.40;4.07;;;19.00;46.10;;;;;;5020836;28;20101;-66
2022/11/29 02:02:21;;;;;;;15.57;4.47;;;19.00;46.50;;;;;;5018576;28;20535;-64
2022/11/29 02:04:48;;;;;;;27.33;5.60;;;18.90;46.70;;;;;;5020764;28;20093;-66
2022/11/29 02:07:15;;;;;;;22.77;4.50;;;18.80;47.10;;;;;;5018015;28;20102;-65
2022/11/29 02:09:41;;;;;;;14.85;4.63;;;18.80;47.30;;;;;;5021293;28;20101;-66
2022/11/29 02:12:26;;;;;;;20.35;4.32;;;18.70;47.60;;;;;;5025021;28;20089;-65
2022/11/29 02:15:05;;;;;;;11.40;3.83;;;18.60;47.80;;;;;;5022137;28;20069;-65
2022/11/29 02:17:50;;;;;;;20.00;3.80;;;18.50;48.30;;;;;;5017920;28;20081;-65
2022/11/29 02:20:31;;;;;;;13.18;3.10;;;18.50;48.80;;;;;;5025149;28;20177;-63
2022/11/29 02:23:32;;;;;;;18.27;4.25;;;18.40;49.30;;;;;;5022966;28;20201;-66
2022/11/29 02:26:23;;;;;;;19.67;3.40;;;18.30;49.80;;;;;;5000585;28;20131;-66
2022/11/29 02:29:23;;;;;;;14.95;3.60;;;18.30;49.90;;;;;;5024859;28;20078;-67
2022/11/29 02:32:34;;;;;;;9.65;3.30;;;18.20;49.80;;;;;;5019371;28;20494;-65
2022/11/29 02:35:04;;;;;;;26.85;3.50;;;18.20;49.80;;;;;;5028512;28;20076;-66
2022/11/29 02:37:57;;;;;;;23.35;4.82;;;18.20;49.20;;;;;;5021492;28;20067;-64
2022/11/29 02:40:35;;;;;;;13.40;3.45;;;18.10;50.40;;;;;;5018682;28;20166;-66
2022/11/29 02:43:24;;;;;;;16.10;3.45;;;18.00;50.50;;;;;;5016484;28;20074;-65
2022/11/29 02:46:15;;;;;;;20.75;3.78;;;18.00;51.30;;;;;;5024861;28;20066;-65
2022/11/29 02:49:00;;;;;;;10.95;3.40;;;17.90;51.80;;;;;;5022995;28;20077;-65
2022/11/29 02:51:41;;;;;;;15.77;3.20;;;17.80;52.40;;;;;;5022074;28;20153;-66
2022/11/29 02:54:15;;;;;;;23.15;3.78;;;17.80;52.90;;;;;;5019710;28;20148;-65
2022/11/29 02:56:56;;;;;;;15.57;3.83;;;17.70;53.50;;;;;;5019532;28;20434;-66
2022/11/29 03:00:00;;;;;;;14.63;3.92;;;17.60;53.90;;;;;;5021065;28;20156;-67
2022/11/29 03:02:44;;;;;;;18.08;4.18;;;17.50;54.10;;;;;;5023762;28;20167;-66
2022/11/29 03:05:23;;;;;;;18.05;4.15;;;17.40;54.20;;;;;;5018285;28;20110;-66
2022/11/29 03:08:28;;;;;;;18.63;3.65;;;17.40;54.20;;;;;;5025674;28;20137;-66
2022/11/29 03:11:07;;;;;;;23.15;3.85;;;17.30;54.10;;;;;;5018282;28;20157;-66
2022/11/29 03:13:56;;;;;;;22.73;4.85;;;17.30;54.10;;;;;;5019171;28;20074;-65
2022/11/29 03:17:02;;;;;;;19.88;4.57;;;17.30;54.20;;;;;;5022386;28;20071;-65
2022/11/29 03:20:10;;;;;;;16.42;4.35;;;17.30;54.20;;;;;;5019982;28;20076;-64
2022/11/29 03:22:53;;;;;;;21.98;4.57;;;17.30;54.20;;;;;;4988901;28;20085;-67
2022/11/29 03:25:35;;;;;;;17.73;3.90;;;17.20;54.80;;;;;;5022098;28;20093;-65
2022/11/29 03:28:13;;;;;;;19.40;8.98;;;17.10;55.00;;;;;;5019424;28;20188;-66
2022/11/29 03:30:49;;;;;;;41.30;15.68;;;17.00;55.30;;;;;;5025958;28;20553;-65
2022/11/29 03:33:23;;;;;;;38.17;15.77;;;16.80;55.50;;;;;;5022865;28;20077;-64
2022/11/29 03:36:13;;;;;;;31.23;15.55;;;16.80;55.90;;;;;;5012552;28;20547;-65
2022/11/29 03:38:45;;;;;;;17.00;4.60;;;16.60;55.80;;;;;;5023299;28;20087;-65
2022/11/29 03:41:17;;;;;;;18.90;5.78;;;16.60;56.50;;;;;;5022318;28;20172;-65
2022/11/29 03:44:02;;;;;;;23.50;6.30;;;16.50;56.50;;;;;;5018845;28;20105;-65
2022/11/29 03:46:42;;;;;;;26.92;11.18;;;16.50;56.60;;;;;;5018792;28;20081;-66
2022/11/29 03:49:26;;;;;;;31.73;8.23;;;16.40;56.80;;;;;;5022086;28;20074;-64
2022/11/29 03:52:15;;;;;;;24.75;8.85;;;16.40;56.70;;;;;;5022427;28;20093;-64
2022/11/29 03:55:03;;;;;;;23.73;5.53;;;16.40;57.00;;;;;;5018414;28;20073;-65
2022/11/29 03:57:39;;;;;;;17.48;4.28;;;16.30;56.40;;;;;;4997437;28;20427;-63
2022/11/29 04:00:07;;;;;;;16.17;4.32;;;16.40;55.10;;;;;;5026317;28;20112;-64
2022/11/29 04:02:59;;;;;;;15.68;4.47;;;16.40;54.70;;;;;;5019138;28;20093;-64
2022/11/29 04:05:53;;;;;;;17.23;5.78;;;16.40;54.10;;;;;;5017447;28;20128;-66
2022/11/29 04:08:49;;;;;;;24.33;6.75;;;16.50;53.90;;;;;;5020491;28;20509;-67
2022/11/29 04:11:57;;;;;;;17.45;6.15;;;16.50;53.60;;;;;;5021949;28;20091;-66
2022/11/29 04:14:36;;;;;;;14.32;4.70;;;16.50;54.00;;;;;;5022099;28;20484;-64
2022/11/29 04:17:44;;;;;;;25.35;6.43;;;16.50;53.80;;;;;;5016404;28;20067;-65
2022/11/29 04:20:36;;;;;;;13.75;4.50;;;16.40;53.50;;;;;;5019830;28;20070;-63
2022/11/29 04:23:08;;;;;;;16.10;4.18;;;16.40;53.40;;;;;;5018945;28;20070;-66
2022/11/29 04:25:40;;;;;;;16.83;4.45;;;16.40;53.30;;;;;;5022350;28;20090;-66
2022/11/29 04:28:25;;;;;;;13.13;4.47;;;16.30;53.60;;;;;;5021325;28;20407;-66
2022/11/29 04:31:30;;;;;;;15.10;4.25;;;16.30;53.60;;;;;;5006830;28;20079;-64
2022/11/29 04:34:24;;;;;;;14.63;3.85;;;16.30;53.70;;;;;;5018489;28;20078;-66
2022/11/29 04:37:08;;;;;;;16.27;4.07;;;16.30;53.70;;;;;;5018662;28;20083;-64
2022/11/29 04:40:11;;;;;;;17.63;5.60;;;16.30;53.50;;;;;;5015281;28;20086;-64
2022/11/29 04:43:15;;;;;;;20.85;7.03;;;16.20;53.40;;;;;;5019226;28;20527;-64
2022/11/29 04:45:57;;;;;;;25.17;6.75;;;16.20;53.10;;;;;;5016112;28;20074;-65
2022/11/29 04:48:42;;;;;;;18.30;4.72;;;16.20;53.00;;;;;;5020476;28;20088;-64
2022/11/29 04:51:40;;;;;;;13.05;3.88;;;16.20;52.80;;;;;;5022993;28;20400;-64
2022/11/29 04:54:09;;;;;;;;;;;16.20;52.90;;;;;;5021069;28;20066;-65
2022/11/29 04:56:50;;;;;;;18.30;4.55;;;16.30;53.10;;;;;;5015106;28;20029;-65
2022/11/29 04:59:38;;;;;;;17.35;4.30;;;16.30;53.30;;;;;;5018415;28;20066;-65
2022/11/29 05:02:32;;;;;;;22.35;3.72;;;16.30;53.60;;;;;;5021855;28;20070;-66
2022/11/29 05:05:12;;;;;;;15.77;3.25;;;16.30;53.80;;;;;;5019068;28;20092;-66
2022/11/29 05:08:25;;;;;;;8.50;3.25;;;16.30;53.70;;;;;;5018136;28;20105;-65
2022/11/29 05:11:22;;;;;;;13.77;3.70;;;16.30;54.10;;;;;;5015345;28;20086;-65
2022/11/29 05:14:11;;;;;;;14.25;3.30;;;16.20;54.00;;;;;;5022754;28;20106;-64
2022/11/29 05:16:47;;;;;;;15.10;3.92;;;16.30;54.20;;;;;;5022998;28;20078;-65
2022/11/29 05:19:49;;;;;;;18.50;4.45;;;16.30;54.30;;;;;;5019924;28;20140;-64
2022/11/29 05:22:40;;;;;;;13.07;4.55;;;16.20;54.60;;;;;;5015403;28;20070;-65
2022/11/29 05:25:31;;;;;;;19.63;4.47;;;16.20;54.70;;;;;;5022109;28;20154;-63
2022/11/29 05:28:19;;;;;;;16.17;5.25;;;16.20;54.70;;;;;;5012602;28;20101;-64
2022/11/29 05:31:23;;;;;;;14.27;3.38;;;16.20;54.70;;;;;;5018168;28;20589;-66
2022/11/29 05:33:53;;;;;;;13.05;3.15;;;16.20;54.60;;;;;;5023678;28;20088;-64
2022/11/29 05:36:45;;;;;;;19.05;3.45;;;16.10;54.80;;;;;;5021974;28;20455;-66
2022/11/29 05:39:29;;;;;;;16.40;3.58;;;16.10;55.30;;;;;;5019006;28;20161;-66
2022/11/29 05:42:22;;;;;;;12.60;3.15;;;16.10;55.20;;;;;;5015503;28;20066;-67
2022/11/29 05:44:58;;;;;;;11.43;3.38;;;16.10;55.20;;;;;;5013582;28;20079;-67
2022/11/29 05:47:56;;;;;;;17.52;3.67;;;16.10;55.30;;;;;;5022616;28;20077;-66
2022/11/29 05:50:57;;;;;;;17.08;3.78;;;16.10;55.70;;;;;;5016078;28;20114;-68
2022/11/29 05:53:50;;;;;;;15.35;3.55;;;16.00;56.20;;;;;;5011551;28;20112;-68
2022/11/29 05:56:55;;;;;;;11.48;3.40;;;16.00;56.30;;;;;;5021591;28;20070;-69
2022/11/29 05:59:26;;;;;;;16.30;5.38;;;15.90;56.70;;;;;;5001946;28;20458;-66
2022/11/29 06:02:05;;;;;;;26.23;4.82;;;15.90;57.20;;;;;;5020421;28;20078;-68
2022/11/29 06:04:51;;;;;;;26.80;4.55;;;15.80;57.50;;;;;;5014092;28;20121;-66
2022/11/29 06:07:47;;;;;;;20.60;4.47;;;15.80;57.90;;;;;;4975636;28;20114;-64
2022/11/29 06:10:23;;;;;;;22.05;4.75;;;15.70;58.30;;;;;;5020486;28;20104;-65
2022/11/29 06:13:34;;;;;;;22.25;4.38;;;15.70;58.60;;;;;;5016752;28;20098;-64
2022/11/29 06:16:28;;;;;;;26.10;5.78;;;15.70;58.70;;;;;;5006567;28;20082;-65
2022/11/29 06:19:16;;;;;;;26.90;5.80;;;15.80;58.90;;;;;;5015579;28;20244;-66
2022/11/29 06:21:55;;;;;;;22.95;5.60;;;15.70;59.00;;;;;;5020305;28;20074;-64
2022/11/29 06:24:46;;;;;;;22.67;4.95;;;15.70;59.20;;;;;;5020189;28;20074;-67
2022/11/29 06:27:35;;;;;;;35.75;5.93;;;15.70;59.70;;;;;;5017654;28;20066;-66
2022/11/29 06:30:10;;;;;;;38.25;6.00;;;15.60;60.00;;;;;;5014999;28;20087;-64
2022/11/29 06:33:00;;;;;;;25.67;4.97;;;15.60;60.20;;;;;;5017537;28;20506;-64
2022/11/29 06:35:48;;;;;;;39.35;6.13;;;15.60;60.10;;;;;;5018380;28;20077;-65
2022/11/29 06:38:20;;;;;;;31.00;5.32;;;15.50;60.40;;;;;;5020815;28;20625;-63
2022/11/29 06:40:47;;;;;;;39.45;5.80;;;15.50;60.30;;;;;;5020294;28;20070;-65
2022/11/29 06:43:14;;;;;;;34.03;5.18;;;15.40;60.30;;;;;;5020419;28;20601;-64
2022/11/29 06:45:48;;;;;;;34.55;4.82;;;15.40;60.50;;;;;;5024152;28;20079;-65
2022/11/29 06:48:23;;;;;;;34.92;5.32;;;15.30;60.50;;;;;;5025779;28;20082;-64
2022/11/29 06:50:54;;;;;;;29.08;5.35;;;15.30;61.00;;;;;;5019327;28;20096;-63
2022/11/29 06:53:48;;;;;;;37.28;4.97;;;15.20;61.70;;;;;;5020518;28;20165;-64
2022/11/29 06:56:40;;;;;;;39.05;4.75;;;15.20;61.90;;;;;;5021018;28;20128;-66
2022/11/29 06:59:33;;;;;;;44.25;6.65;;;15.20;60.50;;;;;;5019979;28;20077;-65
2022/11/29 07:02:22;;;;;;;34.83;5.00;;;15.20;60.20;;;;;;5019116;28;20082;-64
2022/11/29 07:04:59;;;;;;;49.58;5.50;;;15.30;60.00;;;;;;5018891;28;20086;-63
2022/11/29 07:07:25;;;;;;;61.67;5.57;;;15.30;60.00;;;;;;5018379;28;20129;-64
2022/11/29 07:09:58;;;;;;;40.42;5.30;;;15.30;60.00;;;;;;5006199;28;20089;-65
2022/11/29 07:12:25;;;;;;;33.50;8.10;;;15.30;60.20;;;;;;5020214;28;20094;-66
2022/11/29 07:14:52;;;;;;;40.20;7.25;;;15.30;60.40;;;;;;5017035;28;20067;-66
2022/11/29 07:17:39;;;;;;;47.42;11.98;;;15.20;60.40;;;;;;5023870;28;20067;-64
2022/11/29 07:20:18;;;;;;;34.72;5.32;;;15.20;60.80;;;;;;5024220;28;20066;-66
2022/11/29 07:23:05;;;;;;;52.88;9.52;;;15.20;60.70;;;;;;5023947;28;20165;-63
2022/11/29 07:25:50;;;;;;;36.50;5.30;;;15.10;60.90;;;;;;5021470;28;20070;-64
2022/11/29 07:28:41;;;;;;;35.03;4.78;;;15.10;61.30;;;;;;5020075;28;20097;-64
2022/11/29 07:31:36;;;;;;;37.15;5.85;;;15.00;62.30;;;;;;4997262;28;20081;-64
2022/11/29 07:34:33;;;;;;;34.38;5.80;;;14.90;62.10;;;;;;5019548;28;20498;-64
2022/11/29 07:37:05;;;;;;;35.63;6.50;;;14.80;62.90;;;;;;5011012;28;20153;-64
2022/11/29 07:39:39;;;;;;;45.78;5.88;;;14.80;62.80;;;;;;5014859;28;20070;-64
2022/11/29 07:42:22;;;;;;;36.10;6.32;;;14.70;63.50;;;;;;5015997;28;20070;-63
2022/11/29 07:44:51;;;;;;;39.00;6.57;;;14.60;63.80;;;;;;5013974;28;20520;-65
2022/11/29 07:47:17;;;;;;;42.97;6.18;;;14.50;64.20;;;;;;5013451;28;20098;-63
2022/11/29 07:49:43;;;;;;;;;;;14.50;64.30;;;;;;5017440;28;20113;-65
2022/11/29 07:52:15;;;;;;;30.40;6.05;;;14.40;64.20;;;;;;5018942;28;20438;-63
2022/11/29 07:54:41;;;;;;;29.90;6.00;;;14.40;64.80;;;;;;5011287;28;20116;-63
2022/11/29 07:57:07;;;;;;;;;;;14.20;64.70;;;;;;5019668;28;20468;-65
2022/11/29 07:59:34;;;;;;;36.70;5.97;;;14.20;65.00;;;;;;5013476;28;19962;-64
2022/11/29 08:02:01;;;;;;;;;;;14.10;65.20;;;;;;5018052;28;20097;-67
2022/11/29 08:04:30;;;;;;;30.42;6.18;;;14.10;65.00;;;;;;5022858;28;19995;-66
2022/11/29 08:06:58;;;;;;;;;;;14.10;65.30;;;;;;5019818;28;20159;-63
2022/11/29 08:09:24;;;;;;;30.50;5.13;;;14.10;64.90;;;;;;5016478;28;19962;-65
2022/11/29 08:11:51;;;;;;;;;;;14.10;64.30;;;;;;5019326;28;20094;-65
2022/11/29 08:14:17;;;;;;;16.75;4.93;;;14.20;64.00;;;;;;5017327;28;19965;-63
2022/11/29 08:16:43;;;;;;;;;;;14.20;63.70;;;;;;5018624;28;21509;-63
2022/11/29 08:19:09;;;;;;;23.25;4.25;;;14.20;63.60;;;;;;5018475;28;19957;-64
2022/11/29 08:21:35;;;;;;;;;;;14.30;63.80;;;;;;5016915;28;20595;-66
2022/11/29 08:24:02;;;;;;;21.77;4.47;;;14.20;63.80;;;;;;5015739;28;20004;-66
2022/11/29 08:26:28;;;;;;;20.13;4.40;;;14.20;64.10;;;;;;5021305;28;20230;-65
2022/11/29 08:28:55;;;;;;;20.02;4.85;;;14.20;64.30;;;;;;5021062;28;20630;-64
2022/11/29 08:31:22;;;;;;;25.95;4.47;;;14.30;64.60;;;;;;5022033;28;20092;-65
2022/11/29 08:33:48;;;;;;;;;;;14.20;64.60;;;;;;5021899;28;20081;-64
2022/11/29 08:36:17;;;;;;;21.17;4.25;;;14.20;65.00;;;;;;5022330;28;19961;-63
2022/11/29 08:38:44;;;;;;;25.48;4.97;;;14.10;65.10;;;;;;5026318;28;20066;-63
2022/11/29 08:41:13;;;;;;;19.90;4.35;;;14.10;65.60;;;;;;5019659;28;20208;-64
2022/11/29 08:43:40;;;;;;;30.35;5.45;;;14.00;65.80;;;;;;5019513;28;20556;-65
2022/11/29 08:46:07;;;;;;;19.77;5.78;;;14.00;65.80;;;;;;5025396;28;20074;-64
2022/11/29 08:48:34;;;;;;;21.17;5.10;;;14.00;65.50;;;;;;5016539;28;20066;-65
2022/11/29 08:51:00;;;;;;;22.80;4.85;;;13.90;65.40;;;;;;5019031;28;20062;-64
2022/11/29 08:53:42;;;;;;;;;;;13.90;66.10;;;;;;5016790;28;20451;-64
2022/11/29 08:56:17;;;;;;;18.10;4.13;;;13.90;66.50;;;;;;5021238;28;19961;-64
2022/11/29 08:58:44;;;;;;;21.23;4.85;;;13.90;66.70;;;;;;5020662;28;20105;-65
2022/11/29 09:01:14;;;;;;;16.55;4.03;;;13.90;66.90;;;;;;5010509;28;20062;-64
2022/11/29 09:03:59;;;;;;;21.15;3.88;;;13.90;67.00;;;;;;5021733;28;20161;-65
2022/11/29 09:06:30;;;;;;;15.38;3.78;;;14.00;67.10;;;;;;5020357;28;20100;-64
2022/11/29 09:08:58;;;;;;;20.35;3.90;;;14.00;67.20;;;;;;5020959;28;20548;-64
2022/11/29 09:11:26;;;;;;;19.55;4.38;;;14.10;67.40;;;;;;5021454;28;20109;-65
2022/11/29 09:13:55;;;;;;;15.90;4.03;;;14.20;67.30;;;;;;5017040;28;20094;-65
2022/11/29 09:16:25;;;;;;;19.08;3.90;;;14.20;67.40;;;;;;5020405;28;20149;-64
2022/11/29 09:18:54;;;;;;;14.40;3.15;;;14.20;67.60;;;;;;5018741;28;20074;-66
2022/11/29 09:21:25;;;;;;;22.58;3.05;;;14.20;67.30;;;;;;5017876;28;20098;-64
2022/11/29 09:23:57;;;;;;;16.75;3.45;;;14.20;67.20;;;;;;5021699;28;20152;-65
2022/11/29 09:26:26;;;;;;;31.33;4.97;;;14.20;67.00;;;;;;5021999;28;20062;-63
2022/11/29 09:28:53;;;;;;;22.05;3.50;;;14.20;67.10;;;;;;5020633;28;20093;-63
2022/11/29 09:31:20;;;;;;;18.55;3.50;;;14.20;67.10;;;;;;5017248;28;20066;-65
2022/11/29 09:33:47;;;;;;;24.83;4.00;;;14.20;67.00;;;;;;5020373;28;20528;-65
2022/11/29 09:36:14;;;;;;;21.15;3.97;;;14.30;67.10;;;;;;5022635;28;20078;-64
2022/11/29 09:38:41;;;;;;;17.48;3.80;;;14.30;66.60;;;;;;5018453;28;20100;-64
2022/11/29 09:41:35;;;;;;;17.48;3.80;;;14.30;66.20;;;;;;5021339;28;20434;-65
2022/11/29 09:44:19;;;;;;;21.65;4.78;;;14.30;66.20;;;;;;5015054;28;20093;-65
2022/11/29 09:46:56;;;;;;;24.88;4.38;;;14.40;66.10;;;;;;5018733;28;20070;-65
2022/11/29 09:49:25;;;;;;;31.98;4.57;;;14.50;66.30;;;;;;5021922;28;20454;-65
2022/11/29 09:52:15;;;;;;;33.45;4.68;;;14.50;66.40;;;;;;5020653;28;20140;-65
2022/11/29 09:55:16;;;;;;;18.95;4.38;;;14.60;66.30;;;;;;5022112;28;20082;-64
2022/11/29 09:57:43;;;;;;;21.20;4.05;;;14.60;66.30;;;;;;4981548;28;20096;-66
2022/11/29 10:00:19;;;;;;;26.63;4.78;;;14.70;66.40;;;;;;5016386;28;20228;-66
2022/11/29 10:02:52;;;;;;;28.55;4.50;;;14.70;66.40;;;;;;5020371;28;20498;-65
2022/11/29 10:05:48;;;;;;;17.63;3.72;;;14.70;66.60;;;;;;5015964;28;20590;-65
2022/11/29 10:08:46;;;;;;;19.40;3.70;;;14.80;66.70;;;;;;5012071;28;20124;-64
2022/11/29 10:11:23;;;;;;;27.88;4.70;;;14.80;66.70;;;;;;4988210;28;20082;-65
2022/11/29 10:14:00;;;;;;;14.23;3.55;;;14.80;66.90;;;;;;5018692;28;20156;-64
2022/11/29 10:16:51;;;;;;;17.75;4.20;;;14.80;67.40;;;;;;5023156;28;20108;-65
2022/11/29 10:19:46;;;;;;;19.48;4.38;;;14.80;67.60;;;;;;5018659;28;20121;-64
2022/11/29 10:22:53;;;;;;;17.38;4.00;;;14.80;67.70;;;;;;5016997;28;20102;-64
2022/11/29 10:25:34;;;;;;;21.80;4.00;;;14.70;67.70;;;;;;4960195;28;20107;-65
2022/11/29 10:28:03;;;;;;;19.40;4.13;;;14.80;68.50;;;;;;4960819;28;20162;-66
2022/11/29 10:30:33;;;;;;;24.38;4.13;;;14.80;67.70;;;;;;4959187;28;20160;-65
2022/11/29 10:33:01;;;;;;;12.55;3.58;;;14.80;67.90;;;;;;4961466;28;20162;-63
2022/11/29 10:35:28;;;;;;;20.73;4.97;;;14.70;68.10;;;;;;4967682;28;20079;-63
2022/11/29 10:37:59;;;;;;;23.63;4.20;;;14.70;68.20;;;;;;4961334;28;20468;-65
2022/11/29 10:40:32;;;;;;;17.42;3.53;;;14.70;68.50;;;;;;4962588;28;20154;-63
2022/11/29 10:43:00;;;;;;;18.42;4.05;;;14.60;68.30;;;;;;4959236;28;20139;-63
2022/11/29 10:45:30;;;;;;;29.52;4.68;;;14.60;68.60;;;;;;4958011;28;20620;-64
2022/11/29 10:48:11;;;;;;;19.70;4.10;;;14.60;68.80;;;;;;4959422;28;20590;-65
2022/11/29 10:50:42;;;;;;;16.58;4.15;;;14.50;68.70;;;;;;4962352;28;20130;-62
2022/11/29 10:53:16;;;;;;;20.80;4.47;;;14.60;68.80;;;;;;4961496;28;20572;-63
2022/11/29 10:56:03;;;;;;;16.15;3.95;;;14.60;68.60;;;;;;4960783;28;20084;-65
2022/11/29 10:58:30;;;;;;;15.85;3.70;;;14.60;68.40;;;;;;4963824;28;20421;-63
2022/11/29 11:01:05;;;;;;;15.48;3.75;;;14.60;68.50;;;;;;4977190;28;20071;-63
2022/11/29 11:03:41;;;;;;;20.70;4.35;;;14.60;68.80;;;;;;5023566;28;20165;-63
2022/11/29 11:06:19;;;;;;;21.27;4.22;;;14.50;68.80;;;;;;5022087;28;20236;-65
2022/11/29 11:08:55;;;;;;;19.48;4.53;;;14.50;69.30;;;;;;5016871;28;20169;-65
2022/11/29 11:11:30;;;;;;;16.20;3.78;;;14.40;69.50;;;;;;5016763;28;20101;-62
2022/11/29 11:14:03;;;;;;;13.07;3.50;;;14.40;69.90;;;;;;5017496;28;20149;-64
2022/11/29 11:16:31;;;;;;;14.13;3.58;;;14.40;70.00;;;;;;5021597;28;20069;-64
2022/11/29 11:18:59;;;;;;;14.85;3.75;;;14.50;70.00;;;;;;5023228;28;20145;-64
2022/11/29 11:21:27;;;;;;;19.58;4.10;;;14.40;69.90;;;;;;5019854;28;20109;-64
2022/11/29 11:24:01;;;;;;;14.90;3.70;;;14.40;70.10;;;;;;5020318;28;20125;-64
2022/11/29 11:26:44;;;;;;;13.57;3.63;;;14.50;69.30;;;;;;5019230;28;20066;-65
2022/11/29 11:29:23;;;;;;;14.52;3.47;;;14.60;68.80;;;;;;5019586;28;20090;-65
2022/11/29 11:31:58;;;;;;;20.50;4.55;;;14.70;68.30;;;;;;5018934;28;20078;-64
2022/11/29 11:34:33;;;;;;;11.93;3.97;;;14.70;68.10;;;;;;5019195;28;20081;-65
2022/11/29 11:37:14;;;;;;;15.02;3.17;;;14.70;68.00;;;;;;5019783;28;20069;-65
2022/11/29 11:39:42;;;;;;;20.50;3.80;;;14.70;68.00;;;;;;5021819;28;20086;-65
2022/11/29 11:42:35;;;;;;;10.93;3.42;;;14.80;68.00;;;;;;5022135;28;20442;-64
2022/11/29 11:45:10;;;;;;;18.92;3.70;;;14.80;67.90;;;;;;5020816;28;20094;-65
2022/11/29 11:47:58;;;;;;;15.75;4.32;;;14.80;67.70;;;;;;5016851;28;20074;-63
2022/11/29 11:50:26;;;;;;;11.73;3.00;;;14.80;67.50;;;;;;5020182;28;20149;-64
2022/11/29 11:53:01;;;;;;;13.45;3.58;;;14.90;67.60;;;;;;5015092;28;20136;-64
2022/11/29 11:55:38;;;;;;;12.00;3.40;;;14.80;67.50;;;;;;5022721;28;20069;-65
2022/11/29 11:58:14;;;;;;;14.95;3.70;;;14.80;67.60;;;;;;5019789;28;20595;-64
2022/11/29 12:00:43;;;;;;;17.30;3.78;;;14.80;67.70;;;;;;5016931;28;20081;-65
2022/11/29 12:03:45;;;;;;;14.38;3.40;;;14.80;67.60;;;;;;5020502;28;20128;-63
2022/11/29 12:06:45;;;;;;;13.20;3.53;;;14.80;67.90;;;;;;5012036;28;20163;-64
2022/11/29 12:09:32;;;;;;;12.68;3.40;;;14.70;67.90;;;;;;5019304;28;20490;-64
2022/11/29 12:12:25;;;;;;;21.95;3.50;;;14.70;68.00;;;;;;5016446;28;20450;-65
2022/11/29 12:15:01;;;;;;;11.95;3.53;;;14.70;68.00;;;;;;5011491;28;20468;-64
2022/11/29 12:17:42;;;;;;;11.65;3.05;;;14.70;67.80;;;;;;5020093;28;20555;-63
2022/11/29 12:20:09;;;;;;;13.25;3.42;;;14.70;67.60;;;;;;5015924;28;20145;-62
2022/11/29 12:22:50;;;;;;;13.90;3.05;;;14.70;67.40;;;;;;5017330;28;20078;-65
2022/11/29 12:25:28;;;;;;;13.43;3.30;;;14.70;67.60;;;;;;5021992;28;20177;-65
2022/11/29 12:27:55;;;;;;;11.85;3.10;;;14.70;67.70;;;;;;5017370;28;20144;-64
2022/11/29 12:30:21;;;;;;;19.33;4.22;;;14.60;68.00;;;;;;5023445;28;20544;-63
2022/11/29 12:33:09;;;;;;;18.08;3.70;;;14.60;68.30;;;;;;5021685;28;20173;-64
2022/11/29 12:35:40;;;;;;;15.57;3.40;;;14.60;68.80;;;;;;5019148;28;20078;-64
2022/11/29 12:38:25;;;;;;;14.75;3.40;;;14.50;69.00;;;;;;5015396;28;20093;-65
2022/11/29 12:41:01;;;;;;;9.70;3.45;;;14.50;69.30;;;;;;5021384;28;20524;-65
2022/11/29 12:43:55;;;;;;;11.20;3.30;;;14.50;69.60;;;;;;5004375;28;20168;-64
2022/11/29 12:46:27;;;;;;;12.57;3.60;;;14.50;69.70;;;;;;4990027;28;20180;-63
2022/11/29 12:49:12;;;;;;;15.10;3.95;;;14.50;69.90;;;;;;5016318;28;20658;-65
2022/11/29 12:51:45;;;;;;;18.40;4.07;;;14.50;70.10;;;;;;5015282;28;20094;-65
2022/11/29 12:54:28;;;;;;;15.77;3.72;;;14.50;70.20;;;;;;5022152;28;20145;-64
2022/11/29 12:57:06;;;;;;;20.00;4.43;;;14.50;70.60;;;;;;5020536;28;20079;-65
2022/11/29 12:59:44;;;;;;;18.48;3.85;;;14.40;70.70;;;;;;5018141;28;20085;-64
2022/11/29 13:02:25;;;;;;;16.67;3.35;;;14.50;70.90;;;;;;5012918;28;20082;-64
2022/11/29 13:05:01;;;;;;;14.70;3.67;;;14.40;70.90;;;;;;5015337;28;20088;-65
2022/11/29 13:07:51;;;;;;;17.33;3.55;;;14.40;71.00;;;;;;5015546;28;20121;-65
2022/11/29 13:10:27;;;;;;;13.98;3.25;;;14.40;71.00;;;;;;5016419;28;20117;-65
2022/11/29 13:13:23;;;;;;;16.45;3.67;;;14.40;71.00;;;;;;5015648;28;20125;-65
2022/11/29 13:16:47;;;;;;;12.80;3.17;;;14.40;70.50;;;;;;5011096;28;20086;-65
2022/11/29 13:19:31;;;;;;;12.35;3.72;;;14.40;70.40;;;;;;4959463;28;20133;-65
2022/11/29 13:22:02;;;;;;;17.30;3.83;;;14.30;70.30;;;;;;4962012;28;20083;-65
2022/11/29 13:24:31;;;;;;;14.40;3.83;;;14.30;70.30;;;;;;4955432;28;20457;-65
2022/11/29 13:27:03;;;;;;;13.70;3.78;;;14.30;70.20;;;;;;4953389;28;20452;-64
2022/11/29 13:29:30;;;;;;;11.50;3.40;;;14.30;70.20;;;;;;4961461;28;20079;-64
2022/11/29 13:31:58;;;;;;;16.45;4.00;;;14.20;70.20;;;;;;4958650;28;20088;-65
2022/11/29 13:34:27;;;;;;;20.75;4.13;;;14.30;70.10;;;;;;4957022;28;20183;-65
2022/11/29 13:37:14;;;;;;;12.27;3.20;;;14.20;70.00;;;;;;4959028;28;20154;-65